THY6200 LTDB-LTFM
Flight info
| Callsign | THY6200 |
|---|---|
| Flight time | N/A |
| Altitude | 36000 |
| Route | KEMER1J/21L KEMER UW75 URGUP DCT BAG UL605 YAVRU UL615 ERSEN DCT NUMSO DCT ABJUM DCT SADIK |
| Aircraft | A321/M-SDE3FGHIRWY/LB1 |
Departure
| Time | 2026-05-09 15:27 |
|---|---|
| Airport | Çukurova International Airport (LTDB) |
Arrival
| Time | N/A |
|---|---|
| Airport | İstanbul Airport (LTFM) |
| Time | Latitude | Longitude | Altitude | Speed | Heading |
|---|---|---|---|---|---|
| 2026-05-09 14:51 | 36.90086 | 35.06964 | 49 ft | 0 kts | 302° |
| 2026-05-09 15:08 | 36.90084 | 35.06968 | 47 ft | 2 kts | 302° |
| 2026-05-09 15:08 | 36.90062 | 35.07008 | 43 ft | 3 kts | 309° |
| 2026-05-09 15:08 | 36.90049 | 35.07026 | 44 ft | 3 kts | 322° |
| 2026-05-09 15:09 | 36.90034 | 35.07038 | 44 ft | 3 kts | 359° |
| 2026-05-09 15:10 | 36.90024 | 35.07036 | 41 ft | 0 kts | 32° |
| 2026-05-09 15:13 | 36.90025 | 35.07037 | 43 ft | 3 kts | 32° |
| 2026-05-09 15:14 | 36.90083 | 35.07084 | 49 ft | 14 kts | 32° |
| 2026-05-09 15:14 | 36.90169 | 35.07152 | 48 ft | 15 kts | 32° |
| 2026-05-09 15:14 | 36.90262 | 35.07225 | 46 ft | 15 kts | 45° |
| 2026-05-09 15:14 | 36.90241 | 35.07322 | 48 ft | 12 kts | 122° |
| 2026-05-09 15:15 | 36.90194 | 35.07415 | 46 ft | 13 kts | 121° |
| 2026-05-09 15:15 | 36.90143 | 35.07518 | 49 ft | 15 kts | 122° |
| 2026-05-09 15:15 | 36.90157 | 35.07596 | 49 ft | 9 kts | 38° |
| 2026-05-09 15:15 | 36.90219 | 35.07654 | 50 ft | 16 kts | 33° |
| 2026-05-09 15:16 | 36.90346 | 35.07751 | 49 ft | 24 kts | 32° |
| 2026-05-09 15:16 | 36.90483 | 35.07856 | 48 ft | 21 kts | 32° |
| 2026-05-09 15:16 | 36.90599 | 35.07955 | 50 ft | 17 kts | 54° |
| 2026-05-09 15:16 | 36.90561 | 35.08052 | 48 ft | 13 kts | 123° |
| 2026-05-09 15:17 | 36.90486 | 35.08131 | 50 ft | 15 kts | 184° |
| 2026-05-09 15:17 | 36.90405 | 35.08076 | 47 ft | 18 kts | 211° |
| 2026-05-09 15:17 | 36.90388 | 35.08064 | 50 ft | 0 kts | 210° |
| 2026-05-09 15:17 | 36.90345 | 35.08032 | 47 ft | 34 kts | 211° |
| 2026-05-09 15:18 | 36.89913 | 35.07700 | 49 ft | 108 kts | 211° |
| 2026-05-09 15:18 | 36.89116 | 35.07092 | 45 ft | 161 kts | 211° |
| 2026-05-09 15:18 | 36.88352 | 35.06513 | 316 ft | 172 kts | 214° |
| 2026-05-09 15:27 | 36.87522 | 35.05915 | 976 ft | 167 kts | 212° |
| 2026-05-09 15:27 | 36.86504 | 35.05200 | 1596 ft | 172 kts | 213° |
| 2026-05-09 15:27 | 36.85426 | 35.04375 | 1895 ft | 192 kts | 213° |
| 2026-05-09 15:27 | 36.84232 | 35.03442 | 2119 ft | 212 kts | 212° |
| 2026-05-09 15:28 | 36.82959 | 35.02449 | 2634 ft | 219 kts | 212° |
| 2026-05-09 15:28 | 36.81770 | 35.01302 | 3338 ft | 224 kts | 234° |
| 2026-05-09 15:28 | 36.81278 | 34.99468 | 3914 ft | 236 kts | 272° |
| 2026-05-09 15:28 | 36.81669 | 34.97630 | 4237 ft | 255 kts | 296° |
| 2026-05-09 15:29 | 36.82590 | 34.95672 | 4752 ft | 271 kts | 304° |
| 2026-05-09 15:29 | 36.83690 | 34.93738 | 5514 ft | 275 kts | 307° |
| 2026-05-09 15:29 | 36.84817 | 34.91791 | 6328 ft | 278 kts | 306° |
| 2026-05-09 15:29 | 36.86012 | 34.89921 | 7112 ft | 279 kts | 317° |
| 2026-05-09 15:30 | 36.87539 | 34.88562 | 7929 ft | 280 kts | 333° |
| 2026-05-09 15:30 | 36.89371 | 34.87759 | 8761 ft | 281 kts | 348° |
| 2026-05-09 15:30 | 36.91284 | 34.87343 | 9568 ft | 283 kts | 349° |
| 2026-05-09 15:30 | 36.93206 | 34.86931 | 10291 ft | 289 kts | 349° |
| 2026-05-09 15:31 | 36.95236 | 34.86493 | 10514 ft | 311 kts | 349° |
| 2026-05-09 15:31 | 36.97443 | 34.86020 | 10706 ft | 334 kts | 349° |
| 2026-05-09 15:31 | 36.99754 | 34.85527 | 11145 ft | 345 kts | 349° |
| 2026-05-09 15:31 | 37.02116 | 34.85026 | 11798 ft | 349 kts | 348° |
| 2026-05-09 15:32 | 37.04523 | 34.84515 | 12481 ft | 353 kts | 348° |
| 2026-05-09 15:32 | 37.06958 | 34.83997 | 13150 ft | 358 kts | 348° |
| 2026-05-09 15:32 | 37.09428 | 34.83469 | 13859 ft | 361 kts | 348° |
| 2026-05-09 15:32 | 37.11912 | 34.82936 | 14482 ft | 365 kts | 348° |
| 2026-05-09 15:33 | 37.14427 | 34.82396 | 15091 ft | 369 kts | 347° |
| 2026-05-09 15:33 | 37.16947 | 34.81856 | 15697 ft | 373 kts | 347° |
| 2026-05-09 15:33 | 37.19517 | 34.81306 | 16327 ft | 376 kts | 347° |
| 2026-05-09 15:33 | 37.22118 | 34.80749 | 16955 ft | 380 kts | 347° |
| 2026-05-09 15:34 | 37.24615 | 34.80214 | 17554 ft | 384 kts | 347° |
| 2026-05-09 15:34 | 37.27263 | 34.79648 | 18184 ft | 389 kts | 347° |
| 2026-05-09 15:34 | 37.29932 | 34.79077 | 18760 ft | 392 kts | 347° |
| 2026-05-09 15:34 | 37.32634 | 34.78497 | 19324 ft | 394 kts | 347° |
| 2026-05-09 15:35 | 37.35339 | 34.77916 | 19891 ft | 397 kts | 346° |
| 2026-05-09 15:35 | 37.38081 | 34.77328 | 20484 ft | 399 kts | 346° |
| 2026-05-09 15:35 | 37.40828 | 34.76740 | 21071 ft | 402 kts | 346° |
| 2026-05-09 15:35 | 37.43590 | 34.76149 | 21634 ft | 404 kts | 346° |
| 2026-05-09 15:36 | 37.46374 | 34.75552 | 22162 ft | 407 kts | 346° |
| 2026-05-09 15:36 | 37.49161 | 34.74951 | 22638 ft | 409 kts | 346° |
| 2026-05-09 15:36 | 37.51979 | 34.74341 | 23125 ft | 412 kts | 346° |
| 2026-05-09 15:36 | 37.54816 | 34.73725 | 23629 ft | 415 kts | 346° |
| 2026-05-09 15:37 | 37.57627 | 34.73096 | 23999 ft | 416 kts | 343° |
| 2026-05-09 15:37 | 37.60416 | 34.72033 | 24370 ft | 414 kts | 334° |
| 2026-05-09 15:37 | 37.62955 | 34.70463 | 24754 ft | 411 kts | 326° |
| 2026-05-09 15:37 | 37.65422 | 34.68612 | 25147 ft | 413 kts | 325° |
| 2026-05-09 15:38 | 37.67898 | 34.66755 | 25547 ft | 415 kts | 325° |
| 2026-05-09 15:38 | 37.70386 | 34.64893 | 25928 ft | 417 kts | 325° |
| 2026-05-09 15:38 | 37.72890 | 34.63021 | 26318 ft | 419 kts | 325° |
| 2026-05-09 15:38 | 37.75412 | 34.61132 | 26693 ft | 422 kts | 325° |
| 2026-05-09 15:39 | 37.77940 | 34.59235 | 27068 ft | 424 kts | 325° |
| 2026-05-09 15:39 | 37.80454 | 34.57350 | 27423 ft | 426 kts | 325° |
| 2026-05-09 15:39 | 37.83008 | 34.55440 | 27787 ft | 429 kts | 325° |
| 2026-05-09 15:39 | 37.85587 | 34.53506 | 28143 ft | 431 kts | 325° |
| 2026-05-09 15:40 | 37.88171 | 34.51567 | 28483 ft | 433 kts | 325° |
| 2026-05-09 15:40 | 37.90773 | 34.49611 | 28839 ft | 436 kts | 325° |
| 2026-05-09 15:40 | 37.93381 | 34.47650 | 29187 ft | 438 kts | 325° |
| 2026-05-09 15:40 | 37.96003 | 34.45675 | 29573 ft | 441 kts | 325° |
| 2026-05-09 15:41 | 37.98648 | 34.43680 | 29945 ft | 443 kts | 325° |